Fort Smith Regional Airport Fort Smith US
ICAO: KFSM
IATA: FSM
Category: Large
Scheduled Services: Yes

Elevation: 469 ft
TransAlt. 18000 ft.

Airport Communications:
RAZORBACK APP:35.357
RAZORBACK APP:120.175
ATIS:126.3
CLNC DEL:133.85
CTAF:118.3
RAZORBACK DEP:120.9
GND:121.9
JONESBORO RDO:122.2
TWR:118.3
UNICOM:122.95

KFSM Zoom In..

If you have problems with the map follow the link
https://www.worldairports.se/pages/airport.php?
ICAO=KFSM

Runways:

(A) RW 01 length 5001 ft width 150 ft
---- / hdg 16

(B) RW 07 length 8017 ft width 150 ft
ILS 111.30 / hdg 76

(C) RW 19 length 5001 ft width 150 ft
---- / hdg 196

(D) RW 25 length 8017 ft width 150 ft
ILS 111.30 / hdg 256

Location; KFSM
Day. 14 / Time. 17.53 Zulu
* Altimeter: 29.90
* Temperature: 08° c. 46.4°f.
* Wind from: 280° Speed 04 kn.
Dewpoint: 04° c.
Visibility: 10 Statute Miles.
Clouds: Few 12000 ft.

KFSM 141753Z 28004KT 10SM FEW120 08/04 A2990 RMK AO2 SLP127 T00830044 10083 20028 50003


Wind From 280°
Speed 04 kn.

 
 
jpsmedia worldairports.se 2019   terms of use